Flemington, NJ

7:39 AM EST on February 01, 2015 (GMT -0500)
Voorhees Corner | Change Station
CLOSE
Current Station
Personal Weather Station
Location: Flemington, NJ
Elevation: 144 ft
Nearby Weather Stations
Active Advisory: Winter Storm Warning

Elev 144 ft 40.50 °N, 74.81 °W | Updated 12 seconds ago

Overcast
Overcast
23.4 °F
Feels Like 19 °F
N
3.1
Wind Variable Wind from SW
Gusts 4.5 mph

Today
High -- | Low -- °F
--% Chance of Precip.
Yesterday
High -- | Low -- °F
Precip. -- in
7:09 AM 5:17 PM
Waxing Gibbous, 94% visible
Pressure 30.23 in
Visibility 10.0 miles
Clouds Overcast 5000 ft
Windchill 19 °F
Dew Point -3 °F
Humidity 30%
Rainfall 0.00 in
Snow Depth Not available.
UV 0 out of 12
Pollen .10 out of 12
Air Quality Not available.
Flu Activity Not available.
METAR KSMQ 011153Z AUTO 00000KT 10SM OVC050 M09/M13 A3022 RMK AO2 SLP236 T10891128 11089 21133 51006 TSNO

More Conditions Fewer Conditions

Pressure 30.23 in
Visibility 10.0 miles
Clouds Overcast 5000 ft
Windchill 19 °F
Dew Point -3 °F
Humidity 30%
Rainfall 0.00 in
Snow Depth Not available.
UV 0 out of 12
Pollen .10 out of 12
Air Quality Not available.
Flu Activity Not available.
METAR KSMQ 011153Z AUTO 00000KT 10SM OVC050 M09/M13 A3022 RMK AO2 SLP236 T10891128 11089 21133 51006 TSNO

More Conditions Fewer Conditions

10-Day Weather Forecast

Almanac

Astronomy

Feb. 01, 2015 Rise Set
Actual Time
Civil Twilight
Nautical Twilight
Astronomical Twilight
Moon
Length of Visible Light
Length of Day
Tomorrow will be .
, % of the Moon is Illuminated

Today's Extremes

State Highs State Lows

Community

WunderPhotos

Upload Photos

1,792,352 photos uploaded!

WunderBlogs® & News

Nearby

Air Quality

  Air Quality AQ Index Pollutant
Not available.

Snow Depth

Station Depth Elevation

Earthquake Activity

City Distance Mag. Time & Date
Minimum magnitude displayed is 2.5.

Coastal Water Temperatures

Place Temperature

Nearby Weather Stations